sensor_id;sensor_type;location;lat;lon;timestamp;pressure;altitude;pressure_sealevel;temperature;humidity
57827;BME280;43656;57.746;11.780;2023-01-29T00:01:06;101506.41;;;7.94;92.88
57827;BME280;43656;57.746;11.780;2023-01-29T00:03:32;101492.19;;;7.93;93.12
57827;BME280;43656;57.746;11.780;2023-01-29T00:05:59;101501.56;;;7.97;93.03
57827;BME280;43656;57.746;11.780;2023-01-29T00:08:29;101499.75;;;7.98;92.98
57827;BME280;43656;57.746;11.780;2023-01-29T00:10:59;101493.16;;;7.84;93.09
57827;BME280;43656;57.746;11.780;2023-01-29T00:13:25;101498.19;;;7.87;93.99
57827;BME280;43656;57.746;11.780;2023-01-29T00:15:58;101496.50;;;7.78;95.16
57827;BME280;43656;57.746;11.780;2023-01-29T00:18:24;101492.19;;;7.85;95.45
57827;BME280;43656;57.746;11.780;2023-01-29T00:20:51;101488.34;;;7.96;94.65
57827;BME280;43656;57.746;11.780;2023-01-29T00:23:17;101481.81;;;7.98;94.56
57827;BME280;43656;57.746;11.780;2023-01-29T00:25:43;101472.09;;;8.06;94.35
57827;BME280;43656;57.746;11.780;2023-01-29T00:28:08;101471.09;;;8.07;94.05
57827;BME280;43656;57.746;11.780;2023-01-29T00:30:35;101442.59;;;7.97;94.21
57827;BME280;43656;57.746;11.780;2023-01-29T00:33:02;101468.09;;;8.02;94.73
57827;BME280;43656;57.746;11.780;2023-01-29T00:35:27;101477.97;;;8.09;94.48
57827;BME280;43656;57.746;11.780;2023-01-29T00:37:56;101478.81;;;8.10;94.75
57827;BME280;43656;57.746;11.780;2023-01-29T00:40:22;101480.16;;;8.06;94.46
57827;BME280;43656;57.746;11.780;2023-01-29T00:42:48;101481.16;;;8.13;94.85
57827;BME280;43656;57.746;11.780;2023-01-29T00:45:32;101477.78;;;8.11;94.44
57827;BME280;43656;57.746;11.780;2023-01-29T00:47:57;101464.56;;;8.09;94.57
57827;BME280;43656;57.746;11.780;2023-01-29T00:50:23;101461.22;;;8.15;94.21
57827;BME280;43656;57.746;11.780;2023-01-29T00:52:48;101462.56;;;8.11;94.90
57827;BME280;43656;57.746;11.780;2023-01-29T00:55:16;101468.09;;;8.10;94.57
57827;BME280;43656;57.746;11.780;2023-01-29T00:57:41;101464.53;;;8.01;95.24
57827;BME280;43656;57.746;11.780;2023-01-29T01:00:09;101472.09;;;8.14;94.88
57827;BME280;43656;57.746;11.780;2023-01-29T01:02:35;101473.78;;;8.15;94.45
57827;BME280;43656;57.746;11.780;2023-01-29T01:05:20;101477.47;;;8.22;93.86
57827;BME280;43656;57.746;11.780;2023-01-29T01:07:47;101472.44;;;8.11;95.29
57827;BME280;43656;57.746;11.780;2023-01-29T01:10:21;101434.25;;;7.92;94.91
57827;BME280;43656;57.746;11.780;2023-01-29T01:15:20;101464.75;;;8.16;94.47
57827;BME280;43656;57.746;11.780;2023-01-29T01:17:46;101467.56;;;8.14;94.92
57827;BME280;43656;57.746;11.780;2023-01-29T01:20:13;101460.72;;;8.20;94.43
57827;BME280;43656;57.746;11.780;2023-01-29T01:22:39;101454.69;;;8.18;94.63
57827;BME280;43656;57.746;11.780;2023-01-29T01:25:05;101436.25;;;8.15;94.96
57827;BME280;43656;57.746;11.780;2023-01-29T01:27:31;101426.53;;;8.06;94.92
57827;BME280;43656;57.746;11.780;2023-01-29T01:29:56;101447.81;;;8.15;95.06
57827;BME280;43656;57.746;11.780;2023-01-29T01:32:22;101441.28;;;8.18;95.44
57827;BME280;43656;57.746;11.780;2023-01-29T01:34:47;101430.38;;;8.19;95.42
57827;BME280;43656;57.746;11.780;2023-01-29T01:37:13;101437.91;;;8.24;94.83
57827;BME280;43656;57.746;11.780;2023-01-29T01:39:39;101452.19;;;8.08;95.98
57827;BME280;43656;57.746;11.780;2023-01-29T01:42:11;101450.66;;;8.14;96.00
57827;BME280;43656;57.746;11.780;2023-01-29T01:47:16;101453.00;;;8.09;96.21
57827;BME280;43656;57.746;11.780;2023-01-29T01:49:45;101443.44;;;8.14;96.19
57827;BME280;43656;57.746;11.780;2023-01-29T01:52:12;101440.59;;;8.16;95.40
57827;BME280;43656;57.746;11.780;2023-01-29T01:54:38;101420.69;;;8.18;95.45
57827;BME280;43656;57.746;11.780;2023-01-29T01:57:10;101416.66;;;8.06;95.87
57827;BME280;43656;57.746;11.780;2023-01-29T01:59:42;101416.31;;;8.17;95.82
57827;BME280;43656;57.746;11.780;2023-01-29T02:02:11;101394.69;;;8.11;95.73
57827;BME280;43656;57.746;11.780;2023-01-29T02:04:55;101401.72;;;8.20;95.00
57827;BME280;43656;57.746;11.780;2023-01-29T02:07:45;101392.00;;;8.11;95.50
57827;BME280;43656;57.746;11.780;2023-01-29T02:10:36;101402.56;;;8.20;95.36
57827;BME280;43656;57.746;11.780;2023-01-29T02:13:05;101389.16;;;8.20;96.06
57827;BME280;43656;57.746;11.780;2023-01-29T02:15:31;101388.84;;;8.15;96.31
57827;BME280;43656;57.746;11.780;2023-01-29T02:17:58;101380.31;;;8.12;96.89
57827;BME280;43656;57.746;11.780;2023-01-29T02:20:26;101389.69;;;8.16;97.21
57827;BME280;43656;57.746;11.780;2023-01-29T02:28:23;101392.19;;;8.17;97.51
57827;BME280;43656;57.746;11.780;2023-01-29T02:44:36;101372.75;;;8.07;98.62
57827;BME280;43656;57.746;11.780;2023-01-29T02:47:09;101374.25;;;8.10;98.59
57827;BME280;43656;57.746;11.780;2023-01-29T02:49:54;101368.22;;;8.16;98.02
57827;BME280;43656;57.746;11.780;2023-01-29T02:52:25;101370.88;;;8.24;96.91
57827;BME280;43656;57.746;11.780;2023-01-29T02:57:39;101341.06;;;8.27;96.21
57827;BME280;43656;57.746;11.780;2023-01-29T03:00:14;101343.78;;;8.19;97.47
57827;BME280;43656;57.746;11.780;2023-01-29T03:05:27;101345.25;;;8.30;97.17
57827;BME280;43656;57.746;11.780;2023-01-29T03:07:58;101354.13;;;8.30;96.62
57827;BME280;43656;57.746;11.780;2023-01-29T03:10:33;101351.13;;;8.25;97.20
57827;BME280;43656;57.746;11.780;2023-01-29T03:13:15;101362.34;;;8.29;96.74
57827;BME280;43656;57.746;11.780;2023-01-29T03:15:45;101352.28;;;8.31;97.14
57827;BME280;43656;57.746;11.780;2023-01-29T03:18:17;101344.56;;;8.36;96.56
57827;BME280;43656;57.746;11.780;2023-01-29T03:20:48;101328.66;;;8.26;96.34
57827;BME280;43656;57.746;11.780;2023-01-29T03:23:24;101335.19;;;8.32;96.19
57827;BME280;43656;57.746;11.780;2023-01-29T03:26:02;101337.72;;;8.25;96.55
57827;BME280;43656;57.746;11.780;2023-01-29T03:28:47;101343.44;;;8.14;97.60
57827;BME280;43656;57.746;11.780;2023-01-29T03:31:32;101350.78;;;8.28;96.85
57827;BME280;43656;57.746;11.780;2023-01-29T03:34:21;101309.59;;;8.13;96.60
57827;BME280;43656;57.746;11.780;2023-01-29T03:37:01;101294.53;;;8.04;97.46
57827;BME280;43656;57.746;11.780;2023-01-29T03:39:28;101308.28;;;8.09;97.93
57827;BME280;43656;57.746;11.780;2023-01-29T03:42:01;101284.16;;;8.00;97.98
57827;BME280;43656;57.746;11.780;2023-01-29T03:52:55;101312.09;;;8.14;98.28
57827;BME280;43656;57.746;11.780;2023-01-29T03:55:35;101311.25;;;8.14;98.74
57827;BME280;43656;57.746;11.780;2023-01-29T03:58:12;101302.91;;;8.00;98.88
57827;BME280;43656;57.746;11.780;2023-01-29T04:00:44;101306.94;;;8.05;99.20
57827;BME280;43656;57.746;11.780;2023-01-29T04:03:16;101300.56;;;7.97;99.44
57827;BME280;43656;57.746;11.780;2023-01-29T04:06:31;101259.38;;;7.90;99.44
57827;BME280;43656;57.746;11.780;2023-01-29T04:11:21;101269.94;;;7.92;99.86
57827;BME280;43656;57.746;11.780;2023-01-29T04:13:47;101286.19;;;7.98;99.52
57827;BME280;43656;57.746;11.780;2023-01-29T04:16:19;101285.50;;;7.96;99.22
57827;BME280;43656;57.746;11.780;2023-01-29T04:18:47;101283.84;;;7.95;99.32
57827;BME280;43656;57.746;11.780;2023-01-29T04:21:13;101275.63;;;8.05;98.84
57827;BME280;43656;57.746;11.780;2023-01-29T04:23:39;101274.41;;;8.08;97.76
57827;BME280;43656;57.746;11.780;2023-01-29T04:28:50;101266.78;;;7.88;98.83
57827;BME280;43656;57.746;11.780;2023-01-29T04:31:20;101242.31;;;7.91;98.33
57827;BME280;43656;57.746;11.780;2023-01-29T04:36:43;101263.69;;;8.08;97.81
57827;BME280;43656;57.746;11.780;2023-01-29T04:39:17;101245.59;;;8.10;97.67
57827;BME280;43656;57.746;11.780;2023-01-29T04:42:03;101252.28;;;8.14;98.28
57827;BME280;43656;57.746;11.780;2023-01-29T04:47:20;101239.88;;;8.21;98.38
57827;BME280;43656;57.746;11.780;2023-01-29T04:50:12;101233.50;;;8.22;98.14
57827;BME280;43656;57.746;11.780;2023-01-29T04:52:49;101211.72;;;8.25;97.91
57827;BME280;43656;57.746;11.780;2023-01-29T04:55:24;101204.31;;;8.35;97.25
57827;BME280;43656;57.746;11.780;2023-01-29T04:59:07;101204.63;;;8.40;97.32
57827;BME280;43656;57.746;11.780;2023-01-29T05:01:04;101203.28;;;8.36;97.56
57827;BME280;43656;57.746;11.780;2023-01-29T05:03:31;101200.28;;;8.39;97.72
57827;BME280;43656;57.746;11.780;2023-01-29T05:05:59;101199.94;;;8.34;97.85
57827;BME280;43656;57.746;11.780;2023-01-29T05:08:27;101200.47;;;8.30;98.13
57827;BME280;43656;57.746;11.780;2023-01-29T05:10:55;101193.75;;;8.34;97.38
57827;BME280;43656;57.746;11.780;2023-01-29T05:13:22;101171.94;;;7.97;98.85
57827;BME280;43656;57.746;11.780;2023-01-29T05:15:56;101173.59;;;8.07;98.69
57827;BME280;43656;57.746;11.780;2023-01-29T05:18:24;101181.47;;;8.00;99.47
57827;BME280;43656;57.746;11.780;2023-01-29T05:20:50;101190.50;;;8.07;98.75
57827;BME280;43656;57.746;11.780;2023-01-29T05:23:18;101187.97;;;8.14;99.16
57827;BME280;43656;57.746;11.780;2023-01-29T05:25:44;101181.81;;;7.97;99.97
57827;BME280;43656;57.746;11.780;2023-01-29T05:28:09;101181.31;;;8.02;99.75
57827;BME280;43656;57.746;11.780;2023-01-29T05:30:48;101176.50;;;7.89;100.00
57827;BME280;43656;57.746;11.780;2023-01-29T05:33:15;101169.31;;;7.89;100.00
57827;BME280;43656;57.746;11.780;2023-01-29T05:35:42;101169.44;;;7.96;100.00
57827;BME280;43656;57.746;11.780;2023-01-29T05:38:09;101182.72;;;7.81;100.00
57827;BME280;43656;57.746;11.780;2023-01-29T05:40:34;101180.56;;;7.85;100.00
57827;BME280;43656;57.746;11.780;2023-01-29T05:43:00;101182.38;;;7.84;100.00
57827;BME280;43656;57.746;11.780;2023-01-29T05:45:26;101187.72;;;7.92;100.00
57827;BME280;43656;57.746;11.780;2023-01-29T05:47:58;101153.75;;;7.85;100.00
57827;BME280;43656;57.746;11.780;2023-01-29T05:50:25;101175.19;;;7.85;100.00
57827;BME280;43656;57.746;11.780;2023-01-29T05:53:01;101144.69;;;7.86;100.00
57827;BME280;43656;57.746;11.780;2023-01-29T05:55:27;101148.84;;;7.96;100.00
57827;BME280;43656;57.746;11.780;2023-01-29T05:57:56;101142.66;;;7.96;100.00
57827;BME280;43656;57.746;11.780;2023-01-29T06:00:22;101141.16;;;7.93;100.00
57827;BME280;43656;57.746;11.780;2023-01-29T06:02:47;101151.66;;;8.03;100.00
57827;BME280;43656;57.746;11.780;2023-01-29T06:05:13;101149.13;;;8.10;100.00
57827;BME280;43656;57.746;11.780;2023-01-29T06:07:38;101131.50;;;8.15;100.00
57827;BME280;43656;57.746;11.780;2023-01-29T06:10:10;101132.69;;;8.13;100.00
57827;BME280;43656;57.746;11.780;2023-01-29T06:12:36;101146.03;;;8.21;100.00
57827;BME280;43656;57.746;11.780;2023-01-29T06:15:01;101145.69;;;8.24;100.00
57827;BME280;43656;57.746;11.780;2023-01-29T06:17:29;101145.75;;;8.16;100.00
57827;BME280;43656;57.746;11.780;2023-01-29T06:19:54;101151.31;;;8.06;100.00
57827;BME280;43656;57.746;11.780;2023-01-29T06:22:19;101155.97;;;8.12;100.00
57827;BME280;43656;57.746;11.780;2023-01-29T06:24:46;101139.97;;;7.88;100.00
57827;BME280;43656;57.746;11.780;2023-01-29T06:27:12;101140.31;;;8.24;100.00
57827;BME280;43656;57.746;11.780;2023-01-29T06:29:37;101146.00;;;7.98;100.00
57827;BME280;43656;57.746;11.780;2023-01-29T06:32:03;101147.63;;;8.07;100.00
57827;BME280;43656;57.746;11.780;2023-01-29T06:34:28;101143.47;;;8.05;100.00
57827;BME280;43656;57.746;11.780;2023-01-29T06:36:53;101125.53;;;8.05;100.00
57827;BME280;43656;57.746;11.780;2023-01-29T06:39:19;101114.06;;;7.88;100.00
57827;BME280;43656;57.746;11.780;2023-01-29T06:41:44;101105.41;;;7.70;100.00
57827;BME280;43656;57.746;11.780;2023-01-29T06:44:10;101110.56;;;7.80;100.00
57827;BME280;43656;57.746;11.780;2023-01-29T06:46:35;101099.22;;;7.69;100.00
57827;BME280;43656;57.746;11.780;2023-01-29T06:49:01;101101.00;;;7.85;100.00
57827;BME280;43656;57.746;11.780;2023-01-29T06:51:26;101089.63;;;7.83;100.00
57827;BME280;43656;57.746;11.780;2023-01-29T06:53:52;101086.94;;;7.83;100.00
57827;BME280;43656;57.746;11.780;2023-01-29T06:56:20;101085.91;;;7.84;100.00
57827;BME280;43656;57.746;11.780;2023-01-29T06:58:46;101090.34;;;7.69;100.00
57827;BME280;43656;57.746;11.780;2023-01-29T07:01:12;101076.56;;;7.80;100.00
57827;BME280;43656;57.746;11.780;2023-01-29T07:03:37;101052.03;;;7.68;100.00
57827;BME280;43656;57.746;11.780;2023-01-29T07:06:03;101068.03;;;7.85;100.00
57827;BME280;43656;57.746;11.780;2023-01-29T07:08:29;101063.38;;;7.79;100.00
57827;BME280;43656;57.746;11.780;2023-01-29T07:10:59;101060.41;;;7.96;100.00
57827;BME280;43656;57.746;11.780;2023-01-29T07:13:24;101052.16;;;7.75;100.00
57827;BME280;43656;57.746;11.780;2023-01-29T07:15:50;101071.47;;;7.93;100.00
57827;BME280;43656;57.746;11.780;2023-01-29T07:18:15;101068.38;;;7.82;100.00
57827;BME280;43656;57.746;11.780;2023-01-29T07:20:42;101055.66;;;8.07;100.00
57827;BME280;43656;57.746;11.780;2023-01-29T07:23:12;101031.25;;;8.02;100.00
57827;BME280;43656;57.746;11.780;2023-01-29T07:25:38;101051.09;;;8.15;100.00
57827;BME280;43656;57.746;11.780;2023-01-29T07:28:04;101060.94;;;8.23;100.00
57827;BME280;43656;57.746;11.780;2023-01-29T07:30:30;101052.22;;;7.98;100.00
57827;BME280;43656;57.746;11.780;2023-01-29T07:33:06;101028.38;;;8.03;100.00
57827;BME280;43656;57.746;11.780;2023-01-29T07:35:39;101043.00;;;8.23;100.00
57827;BME280;43656;57.746;11.780;2023-01-29T07:38:05;101044.59;;;8.10;100.00
57827;BME280;43656;57.746;11.780;2023-01-29T07:40:31;101036.69;;;8.16;100.00
57827;BME280;43656;57.746;11.780;2023-01-29T07:43:01;101038.81;;;8.21;100.00
57827;BME280;43656;57.746;11.780;2023-01-29T07:45:28;101048.19;;;8.25;100.00
57827;BME280;43656;57.746;11.780;2023-01-29T07:47:55;101048.13;;;8.33;99.68
57827;BME280;43656;57.746;11.780;2023-01-29T07:50:22;101049.94;;;8.41;99.70
57827;BME280;43656;57.746;11.780;2023-01-29T07:52:48;101038.50;;;8.47;99.00
57827;BME280;43656;57.746;11.780;2023-01-29T07:55:14;101031.88;;;8.35;99.89
57827;BME280;43656;57.746;11.780;2023-01-29T07:57:40;101041.34;;;8.22;100.00
57827;BME280;43656;57.746;11.780;2023-01-29T08:00:05;101032.09;;;8.25;100.00
57827;BME280;43656;57.746;11.780;2023-01-29T08:02:31;101039.91;;;8.35;100.00
57827;BME280;43656;57.746;11.780;2023-01-29T08:04:56;101027.38;;;8.27;100.00
57827;BME280;43656;57.746;11.780;2023-01-29T08:07:22;101015.72;;;8.20;100.00
57827;BME280;43656;57.746;11.780;2023-01-29T08:09:47;101043.81;;;8.24;100.00
57827;BME280;43656;57.746;11.780;2023-01-29T08:12:13;101026.44;;;8.20;100.00
57827;BME280;43656;57.746;11.780;2023-01-29T08:14:39;100994.03;;;8.07;100.00
57827;BME280;43656;57.746;11.780;2023-01-29T08:17:06;100999.94;;;8.02;100.00
57827;BME280;43656;57.746;11.780;2023-01-29T08:19:31;100988.31;;;8.10;100.00
57827;BME280;43656;57.746;11.780;2023-01-29T08:21:56;100980.94;;;8.12;99.62
57827;BME280;43656;57.746;11.780;2023-01-29T08:24:22;101003.38;;;8.34;98.78
57827;BME280;43656;57.746;11.780;2023-01-29T08:26:49;100996.34;;;8.33;98.53
57827;BME280;43656;57.746;11.780;2023-01-29T08:29:14;100995.53;;;8.32;98.05
57827;BME280;43656;57.746;11.780;2023-01-29T08:31:40;100973.59;;;8.29;98.39
57827;BME280;43656;57.746;11.780;2023-01-29T08:34:05;100966.03;;;8.32;97.77
57827;BME280;43656;57.746;11.780;2023-01-29T08:36:31;100970.84;;;8.37;97.60
57827;BME280;43656;57.746;11.780;2023-01-29T08:38:56;100979.25;;;8.34;97.88
57827;BME280;43656;57.746;11.780;2023-01-29T08:41:21;100987.41;;;8.17;98.00
57827;BME280;43656;57.746;11.780;2023-01-29T08:43:47;100983.09;;;8.39;97.74
57827;BME280;43656;57.746;11.780;2023-01-29T08:46:12;100990.63;;;8.36;97.44
57827;BME280;43656;57.746;11.780;2023-01-29T08:48:38;100993.47;;;8.42;97.57
57827;BME280;43656;57.746;11.780;2023-01-29T08:51:03;100985.44;;;8.34;97.73
57827;BME280;43656;57.746;11.780;2023-01-29T08:53:30;100995.47;;;8.40;97.42
57827;BME280;43656;57.746;11.780;2023-01-29T08:55:56;100992.53;;;8.27;97.71
57827;BME280;43656;57.746;11.780;2023-01-29T08:58:21;100982.81;;;8.26;97.51
57827;BME280;43656;57.746;11.780;2023-01-29T09:00:46;100995.22;;;8.27;98.49
57827;BME280;43656;57.746;11.780;2023-01-29T09:03:12;100995.31;;;8.34;97.62
57827;BME280;43656;57.746;11.780;2023-01-29T09:05:39;100984.00;;;8.23;98.11
57827;BME280;43656;57.746;11.780;2023-01-29T09:08:06;100986.09;;;8.36;98.22
57827;BME280;43656;57.746;11.780;2023-01-29T09:10:31;101007.41;;;8.38;97.64
57827;BME280;43656;57.746;11.780;2023-01-29T09:12:57;101003.22;;;8.35;97.65
57827;BME280;43656;57.746;11.780;2023-01-29T09:15:23;101003.38;;;8.34;97.76
57827;BME280;43656;57.746;11.780;2023-01-29T09:17:48;100993.00;;;8.39;97.30
57827;BME280;43656;57.746;11.780;2023-01-29T09:20:14;101009.09;;;8.54;96.30
57827;BME280;43656;57.746;11.780;2023-01-29T09:22:40;101004.88;;;8.59;96.80
57827;BME280;43656;57.746;11.780;2023-01-29T09:25:06;101008.84;;;8.49;97.35
57827;BME280;43656;57.746;11.780;2023-01-29T09:27:32;101016.53;;;8.52;97.06
57827;BME280;43656;57.746;11.780;2023-01-29T09:29:57;101023.72;;;8.28;97.24
57827;BME280;43656;57.746;11.780;2023-01-29T09:32:23;101041.00;;;8.49;97.02
57827;BME280;43656;57.746;11.780;2023-01-29T09:34:48;101029.84;;;8.60;96.00
57827;BME280;43656;57.746;11.780;2023-01-29T09:37:14;101011.59;;;8.78;95.23
57827;BME280;43656;57.746;11.780;2023-01-29T09:39:42;101013.91;;;8.81;95.33
57827;BME280;43656;57.746;11.780;2023-01-29T09:42:29;101014.53;;;8.83;94.98
57827;BME280;43656;57.746;11.780;2023-01-29T09:45:04;101010.91;;;8.76;95.10
57827;BME280;43656;57.746;11.780;2023-01-29T09:47:33;100966.75;;;8.64;94.65
57827;BME280;43656;57.746;11.780;2023-01-29T09:50:36;101009.75;;;8.93;94.34
57827;BME280;43656;57.746;11.780;2023-01-29T09:53:13;100990.03;;;8.86;93.88
57827;BME280;43656;57.746;11.780;2023-01-29T09:55:56;100990.94;;;8.93;94.22
57827;BME280;43656;57.746;11.780;2023-01-29T09:58:28;100992.28;;;8.98;94.36
57827;BME280;43656;57.746;11.780;2023-01-29T10:06:52;100987.38;;;9.01;94.35
57827;BME280;43656;57.746;11.780;2023-01-29T10:12:34;100982.19;;;9.14;93.81
57827;BME280;43656;57.746;11.780;2023-01-29T10:15:23;100984.22;;;9.12;93.31
57827;BME280;43656;57.746;11.780;2023-01-29T10:18:04;100976.72;;;9.08;94.59
57827;BME280;43656;57.746;11.780;2023-01-29T10:25:38;100942.47;;;9.10;94.96
57827;BME280;43656;57.746;11.780;2023-01-29T10:28:15;100940.53;;;9.18;94.09
57827;BME280;43656;57.746;11.780;2023-01-29T10:30:47;100927.34;;;9.24;93.68
57827;BME280;43656;57.746;11.780;2023-01-29T10:33:17;100920.53;;;9.21;94.17
57827;BME280;43656;57.746;11.780;2023-01-29T10:35:47;100915.69;;;9.16;94.03
57827;BME280;43656;57.746;11.780;2023-01-29T10:49:35;100893.69;;;9.21;93.76
57827;BME280;43656;57.746;11.780;2023-01-29T10:52:13;100882.13;;;9.21;93.72
57827;BME280;43656;57.746;11.780;2023-01-29T10:57:48;100874.31;;;9.26;93.51
57827;BME280;43656;57.746;11.780;2023-01-29T11:00:11;100856.63;;;9.31;93.65
57827;BME280;43656;57.746;11.780;2023-01-29T11:02:43;100859.31;;;9.31;93.63
57827;BME280;43656;57.746;11.780;2023-01-29T11:05:23;100838.66;;;9.32;93.55
57827;BME280;43656;57.746;11.780;2023-01-29T11:08:00;100831.50;;;9.39;93.25
57827;BME280;43656;57.746;11.780;2023-01-29T11:10:26;100827.97;;;9.38;93.33
57827;BME280;43656;57.746;11.780;2023-01-29T11:12:53;100825.97;;;9.26;93.68
57827;BME280;43656;57.746;11.780;2023-01-29T11:15:23;100824.13;;;9.26;93.67
57827;BME280;43656;57.746;11.780;2023-01-29T11:20:28;100814.59;;;9.24;93.30
57827;BME280;43656;57.746;11.780;2023-01-29T11:22:54;100808.75;;;9.20;92.85
57827;BME280;43656;57.746;11.780;2023-01-29T11:25:20;100789.28;;;9.11;93.25
57827;BME280;43656;57.746;11.780;2023-01-29T11:27:49;100772.81;;;9.00;93.33
57827;BME280;43656;57.746;11.780;2023-01-29T11:30:25;100782.22;;;9.10;92.85
57827;BME280;43656;57.746;11.780;2023-01-29T11:33:17;100743.53;;;8.83;92.33
57827;BME280;43656;57.746;11.780;2023-01-29T11:35:43;100782.06;;;9.12;93.04
57827;BME280;43656;57.746;11.780;2023-01-29T11:40:41;100788.31;;;9.19;92.16
57827;BME280;43656;57.746;11.780;2023-01-29T11:45:55;100773.63;;;9.15;92.81
57827;BME280;43656;57.746;11.780;2023-01-29T11:48:30;100779.28;;;9.05;92.38
57827;BME280;43656;57.746;11.780;2023-01-29T11:50:58;100770.06;;;8.93;92.89
57827;BME280;43656;57.746;11.780;2023-01-29T11:53:49;100748.81;;;8.91;92.23
57827;BME280;43656;57.746;11.780;2023-01-29T11:56:28;100767.28;;;9.01;92.36
57827;BME280;43656;57.746;11.780;2023-01-29T11:58:57;100767.47;;;9.00;91.99
57827;BME280;43656;57.746;11.780;2023-01-29T12:01:34;100770.59;;;9.03;92.54
57827;BME280;43656;57.746;11.780;2023-01-29T12:04:01;100766.03;;;9.04;92.21
57827;BME280;43656;57.746;11.780;2023-01-29T12:06:34;100760.75;;;9.10;92.42
57827;BME280;43656;57.746;11.780;2023-01-29T12:09:08;100750.00;;;9.10;92.43
57827;BME280;43656;57.746;11.780;2023-01-29T12:11:34;100747.91;;;9.06;92.43
57827;BME280;43656;57.746;11.780;2023-01-29T12:14:03;100745.94;;;9.14;92.65
57827;BME280;43656;57.746;11.780;2023-01-29T12:21:46;100718.78;;;9.24;92.71
57827;BME280;43656;57.746;11.780;2023-01-29T12:27:11;100713.81;;;9.21;92.10
57827;BME280;43656;57.746;11.780;2023-01-29T12:29:46;100672.69;;;8.99;92.88
57827;BME280;43656;57.746;11.780;2023-01-29T12:32:30;100676.34;;;8.91;92.93
57827;BME280;43656;57.746;11.780;2023-01-29T12:35:05;100688.16;;;8.97;92.90
57827;BME280;43656;57.746;11.780;2023-01-29T12:38:05;100666.50;;;8.99;93.06
57827;BME280;43656;57.746;11.780;2023-01-29T12:40:39;100679.53;;;9.02;93.08
57827;BME280;43656;57.746;11.780;2023-01-29T12:43:14;100675.06;;;9.09;92.71
57827;BME280;43656;57.746;11.780;2023-01-29T12:45:40;100666.28;;;9.00;92.58
57827;BME280;43656;57.746;11.780;2023-01-29T12:48:12;100655.19;;;8.82;93.69
57827;BME280;43656;57.746;11.780;2023-01-29T12:50:38;100660.34;;;8.83;94.04
57827;BME280;43656;57.746;11.780;2023-01-29T12:53:32;100659.81;;;8.88;94.05
57827;BME280;43656;57.746;11.780;2023-01-29T12:56:02;100650.50;;;8.90;94.48
57827;BME280;43656;57.746;11.780;2023-01-29T12:58:37;100637.25;;;8.82;93.86
57827;BME280;43656;57.746;11.780;2023-01-29T13:01:12;100647.84;;;8.90;93.69
57827;BME280;43656;57.746;11.780;2023-01-29T13:06:45;100644.53;;;8.88;93.57
57827;BME280;43656;57.746;11.780;2023-01-29T13:09:16;100633.34;;;8.85;93.46
57827;BME280;43656;57.746;11.780;2023-01-29T13:11:53;100638.50;;;8.86;93.92
57827;BME280;43656;57.746;11.780;2023-01-29T13:20:02;100624.34;;;8.92;93.88
57827;BME280;43656;57.746;11.780;2023-01-29T13:22:35;100619.28;;;8.83;94.24
57827;BME280;43656;57.746;11.780;2023-01-29T13:25:02;100617.75;;;8.74;95.01
57827;BME280;43656;57.746;11.780;2023-01-29T13:27:30;100601.22;;;8.70;95.05
57827;BME280;43656;57.746;11.780;2023-01-29T13:29:56;100600.50;;;8.83;95.01
57827;BME280;43656;57.746;11.780;2023-01-29T13:32:27;100602.75;;;8.79;93.78
57827;BME280;43656;57.746;11.780;2023-01-29T13:34:59;100584.56;;;8.75;95.11
57827;BME280;43656;57.746;11.780;2023-01-29T13:37:37;100589.53;;;8.78;94.25
57827;BME280;43656;57.746;11.780;2023-01-29T13:40:05;100589.09;;;8.74;94.61
57827;BME280;43656;57.746;11.780;2023-01-29T13:42:48;100584.19;;;8.78;94.28
57827;BME280;43656;57.746;11.780;2023-01-29T13:45:34;100575.09;;;8.79;94.32
57827;BME280;43656;57.746;11.780;2023-01-29T13:48:26;100566.84;;;8.80;94.17
57827;BME280;43656;57.746;11.780;2023-01-29T13:50:55;100563.28;;;8.73;94.01
57827;BME280;43656;57.746;11.780;2023-01-29T13:53:31;100562.81;;;8.69;94.52
57827;BME280;43656;57.746;11.780;2023-01-29T13:56:41;100560.41;;;8.75;93.72
57827;BME280;43656;57.746;11.780;2023-01-29T13:59:20;100557.13;;;8.79;94.06
57827;BME280;43656;57.746;11.780;2023-01-29T14:06:45;100520.56;;;8.72;94.62
57827;BME280;43656;57.746;11.780;2023-01-29T14:12:00;100511.09;;;8.76;94.23
57827;BME280;43656;57.746;11.780;2023-01-29T14:17:21;100493.97;;;8.77;94.30
57827;BME280;43656;57.746;11.780;2023-01-29T14:19:51;100484.25;;;8.76;93.90
57827;BME280;43656;57.746;11.780;2023-01-29T14:22:25;100479.59;;;8.84;94.06
57827;BME280;43656;57.746;11.780;2023-01-29T14:24:58;100480.38;;;8.78;93.93
57827;BME280;43656;57.746;11.780;2023-01-29T14:27:24;100474.78;;;8.80;94.31
57827;BME280;43656;57.746;11.780;2023-01-29T14:29:51;100443.28;;;8.60;93.87
57827;BME280;43656;57.746;11.780;2023-01-29T14:32:23;100455.41;;;8.78;94.30
57827;BME280;43656;57.746;11.780;2023-01-29T14:34:57;100444.22;;;8.74;93.86
57827;BME280;43656;57.746;11.780;2023-01-29T14:37:35;100428.53;;;8.71;93.87
57827;BME280;43656;57.746;11.780;2023-01-29T14:40:23;100418.19;;;8.68;94.65
57827;BME280;43656;57.746;11.780;2023-01-29T14:43:00;100419.06;;;8.75;94.25
57827;BME280;43656;57.746;11.780;2023-01-29T14:45:37;100408.69;;;8.65;94.86
57827;BME280;43656;57.746;11.780;2023-01-29T14:56:16;100403.34;;;8.72;94.83
57827;BME280;43656;57.746;11.780;2023-01-29T15:01:34;100393.84;;;8.69;94.62
57827;BME280;43656;57.746;11.780;2023-01-29T15:04:06;100379.56;;;8.62;94.79
57827;BME280;43656;57.746;11.780;2023-01-29T15:06:54;100388.88;;;8.66;95.11
57827;BME280;43656;57.746;11.780;2023-01-29T15:09:45;100366.13;;;8.34;94.90